^^
Grace C. Lehan Memorial Weather Station Historical Data
Daily Summary for September 18, 2022 Units:  Metric    English   Both
Daily Weekly Monthly Yearly
  High: Low: Average:
Temperature: 28.9 °C 15.1 °C 22.8 °C
Dew Point: 20.8 °C 13.4 °C 18.2 °C
Humidity: 96% 57.1% 77%
Wind Speed: 4.8km/h 0km/h 0.5km/h
Wind Gust: 24.1km/h - -
Wind- - WSW
Pressure: 1019.9 hPa 1012.1 hPa -
Precipitation: 0 mm    
 
 
Tabular Data for September 18, 2022
Time Temperature Dew Point Pressure Wind Wind Speed Wind Gust Humidity Rainfall Rate (Hourly) solar
00:04 15.2 °C 13.6 °C 1019.5 hPa Calm     90% 0 mm 0 W/m2
00:09 15.2 °C 13.6 °C 1019.9 hPa Calm     90% 0 mm 0 W/m2
00:14 15.2 °C 13.5 °C 1019.5 hPa Calm     90% 0 mm 0 W/m2
00:19 15.1 °C 13.5 °C 1019.5 hPa Calm     90% 0 mm 0 W/m2
00:24 15.1 °C 13.5 °C 1019.5 hPa Calm     90% 0 mm 0 W/m2
00:29 15.1 °C 13.4 °C 1019.5 hPa Calm     90% 0 mm 0 W/m2
00:34 15.1 °C 13.6 °C 1019.5 hPa Calm     90.4% 0 mm 0 W/m2
00:39 15.1 °C 13.7 °C 1019.5 hPa Calm     91% 0 mm 0 W/m2
00:43 15.2 °C 13.7 °C 1019.5 hPa Calm     91% 0 mm 0 W/m2
01:00 15.4 °C 14.1 °C 1019.5 hPa Calm     92% 0 mm 0 W/m2
01:30 15.4 °C 14.2 °C 1019.2 hPa Calm     92% 0 mm 0 W/m2
02:00 15.5 °C 14.4 °C 1018.5 hPa Calm     93% 0 mm 0 W/m2
02:30 15.5 °C 14.4 °C 1018.5 hPa Calm     93% 0 mm 0 W/m2
03:00 15.6 °C 14.7 °C 1018.2 hPa Calm     94% 0 mm 0 W/m2
03:30 15.6 °C 14.7 °C 1017.8 hPa Calm     94% 0 mm 0 W/m2
04:04 15.4 °C 14.4 °C 1017.8 hPa Calm     94% 0 mm 0 W/m2
04:09 15.4 °C 14.4 °C 1017.8 hPa Calm     94% 0 mm 0 W/m2
04:14 15.3 °C 14.4 °C 1017.5 hPa Calm     94% 0 mm 0 W/m2
04:19 15.3 °C 14.3 °C 1017.5 hPa Calm     94% 0 mm 0 W/m2
04:24 15.3 °C 14.3 °C 1017.5 hPa Calm     94% 0 mm 0 W/m2
04:29 15.3 °C 14.4 °C 1017.5 hPa Calm     94.5% 0 mm 0 W/m2
04:34 15.3 °C 14.5 °C 1017.5 hPa Calm     94.9% 0 mm 0 W/m2
04:39 15.3 °C 14.4 °C 1017.2 hPa Calm     94% 0 mm 0 W/m2
04:44 15.3 °C 14.3 °C 1017.5 hPa Calm     94% 0 mm 0 W/m2
04:49 15.3 °C 14.3 °C 1017.2 hPa Calm     94% 0 mm 0 W/m2
04:54 15.2 °C 14.3 °C 1017.2 hPa Calm     94% 0 mm 0 W/m2
04:59 15.2 °C 14.2 °C 1017.2 hPa Calm     94% 0 mm 0 W/m2
05:04 15.1 °C 14.2 °C 1017.2 hPa Calm     94% 0 mm 0 W/m2
05:09 15.1 °C 14.1 °C 1017.2 hPa Calm     94% 0 mm 0 W/m2
05:14 15.1 °C 14.1 °C 1017.2 hPa Calm     94.2% 0 mm 0 W/m2
05:19 15.1 °C 14.3 °C 1017.2 hPa Calm     95% 0 mm 0 W/m2
05:24 15.1 °C 14.3 °C 1017.2 hPa Calm     95% 0 mm 0 W/m2
05:29 15.2 °C 14.4 °C 1017.2 hPa Calm     95% 0 mm 0 W/m2
05:34 15.3 °C 14.6 °C 1017.2 hPa Calm     95% 0 mm 0 W/m2
05:39 15.6 °C 14.9 °C 1017.2 hPa Calm     96% 0 mm 0 W/m2
05:44 15.9 °C 15.3 °C 1016.8 hPa Calm     96% 0 mm 0 W/m2
05:49 16.1 °C 15.5 °C 1016.8 hPa Calm     96% 0 mm 0 W/m2
05:54 16.2 °C 15.6 °C 1016.8 hPa Calm     96% 0 mm 0 W/m2
05:59 16.3 °C 15.7 °C 1016.8 hPa Calm     96% 0 mm 0 W/m2
06:04 16.3 °C 15.7 °C 1016.8 hPa Calm     95.6% 0 mm 0 W/m2
06:09 16.4 °C 15.6 °C 1016.8 hPa Calm     95% 0 mm 0 W/m2
06:14 16.4 °C 15.6 °C 1016.8 hPa Calm   1.6 km/h 95% 0 mm 0 W/m2
06:19 16.4 °C 15.7 °C 1016.8 hPa Calm   1.6 km/h 95% 0 mm 0 W/m2
06:24 16.4 °C 15.6 °C 1016.8 hPa Calm   1.6 km/h 95% 0 mm 0 W/m2
06:29 16.4 °C 15.6 °C 1016.8 hPa Calm   1.6 km/h 95% 0 mm 0 W/m2
06:34 16.4 °C 15.6 °C 1016.8 hPa Calm   1.6 km/h 95% 0 mm 0 W/m2
06:39 16.3 °C 15.6 °C 1016.8 hPa Calm     95% 0 mm 5 W/m2
06:44 16.3 °C 15.6 °C 1016.8 hPa Calm     95% 0 mm 7 W/m2
06:49 16.3 °C 15.6 °C 1016.8 hPa Calm     95% 0 mm 12 W/m2
06:54 16.3 °C 15.6 °C 1016.8 hPa Calm     95% 0 mm 16 W/m2
06:59 16.3 °C 15.6 °C 1016.8 hPa Calm     95% 0 mm 19 W/m2
07:04 16.4 °C 15.6 °C 1016.8 hPa Calm     95% 0 mm 25 W/m2
07:09 16.4 °C 15.6 °C 1016.8 hPa Calm     95% 0 mm 28 W/m2
07:14 16.4 °C 15.8 °C 1016.8 hPa Calm     95.8% 0 mm 32 W/m2
07:19 16.5 °C 15.9 °C 1016.8 hPa Calm     96% 0 mm 44 W/m2
07:24 16.6 °C 15.9 °C 1016.8 hPa Calm     96% 0 mm 44 W/m2
07:29 16.7 °C 16.1 °C 1017.2 hPa Calm     96% 0 mm 44 W/m2
07:34 16.8 °C 16.2 °C 1017.2 hPa Calm     96% 0 mm 58 W/m2
07:39 16.9 °C 16.2 °C 1016.8 hPa Calm     96% 0 mm 58 W/m2
07:44 16.9 °C 16.3 °C 1016.8 hPa Calm     96% 0 mm 56 W/m2
07:49 17.1 °C 16.4 °C 1016.8 hPa Calm     96% 0 mm 62 W/m2
07:54 17.2 °C 16.5 °C 1016.8 hPa Calm     96% 0 mm 74 W/m2
07:59 17.2 °C 16.6 °C 1016.8 hPa Calm     96% 0 mm 74 W/m2
08:04 17.3 °C 16.7 °C 1016.8 hPa Calm     96% 0 mm 74 W/m2
08:09 17.4 °C 16.7 °C 1016.8 hPa Calm     96% 0 mm 81 W/m2
08:14 17.5 °C 16.8 °C 1016.8 hPa Calm     95.3% 0 mm 88 W/m2
08:19 17.6 °C 16.9 °C 1016.8 hPa Calm     95.8% 0 mm 95 W/m2
08:24 17.8 °C 17 °C 1016.8 hPa Calm     95% 0 mm 100 W/m2
08:29 18 °C 17.2 °C 1016.8 hPa Calm     95% 0 mm 104 W/m2
08:34 18.2 °C 17.3 °C 1016.8 hPa Calm     95% 0 mm 105 W/m2
08:39 18.3 °C 17.5 °C 1016.8 hPa Calm     95% 0 mm 109 W/m2
08:44 18.6 °C 17.7 °C 1016.8 hPa Calm     95% 0 mm 116 W/m2
08:49 18.8 °C 17.8 °C 1016.8 hPa Calm     94.2% 0 mm 125 W/m2
08:54 19 °C 17.9 °C 1016.8 hPa SE 0.2 km/h 1.6 km/h 93.6% 0 mm 271 W/m2
08:59 19.2 °C 18 °C 1016.8 hPa SSW 1.8 km/h 19.3 km/h 92.4% 0 mm 332 W/m2
09:04 19.6 °C 18 °C 1016.8 hPa WSW 2.1 km/h 19.3 km/h 90.5% 0 mm 343 W/m2
09:09 20.1 °C 18.1 °C 1016.8 hPa SW 1.9 km/h 16.1 km/h 88.3% 0 mm 343 W/m2
09:14 20.7 °C 18.3 °C 1016.8 hPa WSW 0.2 km/h 16.1 km/h 86.1% 0 mm 362 W/m2
09:19 21.2 °C 18.3 °C 1016.8 hPa West 1 km/h 16.1 km/h 83.9% 0 mm 403 W/m2
09:24 21.7 °C 18.6 °C 1016.8 hPa West 0.6 km/h 16.1 km/h 82.4% 0 mm 417 W/m2
09:29 22.2 °C 18.7 °C 1016.8 hPa WSW 0.8 km/h 16.1 km/h 80.6% 0 mm 434 W/m2
09:34 22.7 °C 18.7 °C 1016.5 hPa WSW 1.8 km/h 17.7 km/h 78.5% 0 mm 455 W/m2
09:39 23.1 °C 18.8 °C 1016.5 hPa SW 0.6 km/h 17.7 km/h 76.8% 0 mm 473 W/m2
09:44 23.5 °C 19.1 °C 1016.5 hPa WSW 1.4 km/h 17.7 km/h 76.2% 0 mm 490 W/m2
09:49 23.9 °C 19.1 °C 1016.5 hPa SW 2.1 km/h 17.7 km/h 74.5% 0 mm 501 W/m2
09:54 24.2 °C 18.9 °C 1016.5 hPa WSW 1.9 km/h 17.7 km/h 72.4% 0 mm 517 W/m2
09:59 24.4 °C 18.9 °C 1016.5 hPa WSW 3.1 km/h 17.7 km/h 71.5% 0 mm 522 W/m2
10:04 24.5 °C 19.1 °C 1016.5 hPa WSW 4.8 km/h 19.3 km/h 71.6% 0 mm 540 W/m2
10:09 24.7 °C 19.1 °C 1016.5 hPa WSW 3.9 km/h 19.3 km/h 71.4% 0 mm 552 W/m2
10:14 24.7 °C 19 °C 1016.5 hPa WSW 2.4 km/h 19.3 km/h 70.5% 0 mm 564 W/m2
10:19 24.7 °C 18.8 °C 1016.1 hPa SW 3.5 km/h 24.1 km/h 69.6% 0 mm 582 W/m2
10:24 24.8 °C 19.1 °C 1016.1 hPa WSW 1.6 km/h 24.1 km/h 70.8% 0 mm 591 W/m2
10:29 25 °C 19.4 °C 1016.1 hPa West 0.5 km/h 24.1 km/h 71.1% 0 mm 603 W/m2
10:34 25.3 °C 19.3 °C 1015.8 hPa SW 1.3 km/h 24.1 km/h 69.4% 0 mm 608 W/m2
10:39 25.5 °C 19.4 °C 1015.8 hPa WSW 1.6 km/h 16.1 km/h 69.2% 0 mm 603 W/m2
10:44 25.8 °C 19.7 °C 1015.8 hPa West 0.5 km/h 16.1 km/h 69.1% 0 mm 626 W/m2
10:49 26 °C 19.6 °C 1015.8 hPa SW 0.3 km/h 16.1 km/h 67.5% 0 mm 636 W/m2
10:54 26.3 °C 19.8 °C 1015.8 hPa WSW 1.3 km/h 16.1 km/h 67.9% 0 mm 652 W/m2
10:57 26.4 °C 19.6 °C 1015.8 hPa Calm   16.1 km/h 66.1% 0 mm 656 W/m2
11:00 26.7 °C 20.3 °C 1015.8 hPa WSW 1.6 km/h 16.1 km/h 68% 0 mm 626 W/m2
11:30 27.6 °C 19.7 °C 1015.5 hPa WSW 1.6 km/h 17.7 km/h 62% 0 mm 680 W/m2
12:04 27.1 °C 20.1 °C 1015.5 hPa West 1 km/h 17.7 km/h 65.4% 0 mm 680 W/m2
12:09 27.1 °C 20.1 °C 1014.8 hPa West 0.2 km/h 4.8 km/h 65.9% 0 mm 128 W/m2
12:14 27 °C 20.1 °C 1015.1 hPa West 0.2 km/h 4.8 km/h 65.7% 0 mm 130 W/m2
12:19 27 °C 20.2 °C 1015.1 hPa Calm   4.8 km/h 66.4% 0 mm 227 W/m2
12:24 26.9 °C 20.1 °C 1014.8 hPa WSW 1.8 km/h 11.3 km/h 66.2% 0 mm 257 W/m2
12:29 27 °C 20.2 °C 1014.8 hPa WSW 0.2 km/h 11.3 km/h 66.3% 0 mm 257 W/m2
12:34 27.1 °C 20.4 °C 1014.8 hPa WSW 0.5 km/h 11.3 km/h 66.8% 0 mm 355 W/m2
12:39 27.2 °C 20.4 °C 1014.8 hPa WSW 0.5 km/h 8 km/h 66.6% 0 mm 262 W/m2
12:44 27.3 °C 20.5 °C 1014.8 hPa Calm   8 km/h 66.4% 0 mm 151 W/m2
12:49 27.4 °C 20.6 °C 1014.8 hPa WSW 0.3 km/h 8 km/h 66.6% 0 mm 114 W/m2
12:54 27.5 °C 20.6 °C 1014.8 hPa SW 0.2 km/h 8 km/h 65.9% 0 mm 118 W/m2
12:59 27.5 °C 20.4 °C 1014.4 hPa SW 0.6 km/h 8 km/h 65.2% 0 mm 155 W/m2
13:04 27.6 °C 20.4 °C 1014.4 hPa SW 1.1 km/h 8 km/h 65.3% 0 mm 399 W/m2
13:09 27.6 °C 20.5 °C 1014.4 hPa SW 1.1 km/h 9.7 km/h 65.3% 0 mm 399 W/m2
13:14 27.6 °C 20.2 °C 1014.4 hPa SW 2.1 km/h 12.9 km/h 63.9% 0 mm 237 W/m2
13:19 27.7 °C 20.4 °C 1014.4 hPa West 1.1 km/h 12.9 km/h 64.7% 0 mm 237 W/m2
13:24 27.7 °C 20.6 °C 1014.1 hPa WSW 1 km/h 12.9 km/h 64.9% 0 mm 135 W/m2
13:29 27.8 °C 20.8 °C 1014.1 hPa WSW 0.6 km/h 12.9 km/h 65.7% 0 mm 114 W/m2
13:34 27.9 °C 20.7 °C 1014.1 hPa SW 0.5 km/h 12.9 km/h 65% 0 mm 181 W/m2
13:39 27.9 °C 20.6 °C 1014.1 hPa WSW 0.3 km/h 6.4 km/h 64.5% 0 mm 174 W/m2
13:44 28 °C 20.5 °C 1014.1 hPa SW 2.7 km/h 11.3 km/h 63.7% 0 mm 113 W/m2
13:49 28 °C 20.4 °C 1014.1 hPa WSW 0.3 km/h 11.3 km/h 63.3% 0 mm 107 W/m2
13:54 28 °C 20.6 °C 1013.8 hPa WSW 0.3 km/h 11.3 km/h 63.8% 0 mm 104 W/m2
13:59 28.1 °C 20.5 °C 1013.8 hPa SW 1 km/h 11.3 km/h 63.5% 0 mm 111 W/m2
14:04 28.1 °C 20.4 °C 1013.8 hPa SW 1.1 km/h 11.3 km/h 63.4% 0 mm 105 W/m2
14:09 28.1 °C 20.6 °C 1013.8 hPa WSW 1.3 km/h 8 km/h 63.8% 0 mm 102 W/m2
14:14 28.1 °C 20.4 °C 1013.8 hPa WSW 1.1 km/h 11.3 km/h 63.1% 0 mm 102 W/m2
14:19 28.1 °C 20.6 °C 1013.4 hPa WSW 1.3 km/h 11.3 km/h 63.7% 0 mm 113 W/m2
14:24 28.1 °C 20.8 °C 1013.4 hPa WSW 0.2 km/h 11.3 km/h 64.5% 0 mm 139 W/m2
14:29 28.2 °C 20.7 °C 1013.4 hPa WSW 1 km/h 11.3 km/h 64% 0 mm 116 W/m2
14:34 28.2 °C 20.6 °C 1013.4 hPa Calm   11.3 km/h 63.3% 0 mm 104 W/m2
14:39 28.3 °C 20.7 °C 1013.4 hPa WSW 0.8 km/h 11.3 km/h 63.4% 0 mm 130 W/m2
14:44 28.4 °C 20.6 °C 1013.4 hPa WSW 1.4 km/h 11.3 km/h 62.8% 0 mm 239 W/m2
14:49 28.4 °C 20.6 °C 1013.1 hPa WSW 1.3 km/h 16.1 km/h 62.5% 0 mm 466 W/m2
14:54 28.6 °C 20.1 °C 1013.1 hPa WSW 3.1 km/h 16.1 km/h 60.1% 0 mm 123 W/m2
14:59 28.6 °C 19.8 °C 1013.1 hPa SW 2.9 km/h 16.1 km/h 59% 0 mm 121 W/m2
15:04 28.6 °C 19.6 °C 1013.1 hPa WSW 0.8 km/h 11.3 km/h 58.5% 0 mm 165 W/m2
15:09 28.6 °C 19.9 °C 1013.1 hPa West 0.2 km/h 11.3 km/h 59.8% 0 mm 190 W/m2
15:14 28.6 °C 20 °C 1013.1 hPa WSW 1.8 km/h 11.3 km/h 59.7% 0 mm 394 W/m2
15:19 28.6 °C 19.8 °C 1012.8 hPa SW 2.9 km/h 20.9 km/h 58.8% 0 mm 575 W/m2
15:24 28.6 °C 19.7 °C 1012.8 hPa WSW 1 km/h 20.9 km/h 58.5% 0 mm 573 W/m2
15:29 28.7 °C 19.8 °C 1012.8 hPa WSW 0.8 km/h 20.9 km/h 58.8% 0 mm 429 W/m2
15:34 28.7 °C 19.7 °C 1012.8 hPa WSW 2.6 km/h 20.9 km/h 58.1% 0 mm 515 W/m2
15:39 28.8 °C 19.8 °C 1012.8 hPa SW 0.6 km/h 17.7 km/h 58.1% 0 mm 504 W/m2
15:44 28.8 °C 19.5 °C 1012.8 hPa SW 1.1 km/h 17.7 km/h 57.1% 0 mm 404 W/m2
15:49 28.9 °C 19.8 °C 1012.8 hPa West 0.8 km/h 17.7 km/h 57.8% 0 mm 464 W/m2
15:54 28.9 °C 19.7 °C 1012.8 hPa WSW 0.3 km/h 17.7 km/h 57.8% 0 mm 464 W/m2
15:59 28.8 °C 19.5 °C 1012.8 hPa WSW 0.2 km/h 17.7 km/h 57.2% 0 mm 90 W/m2
16:09 28.7 °C 19.8 °C 1012.4 hPa Calm   1.6 km/h 58.7% 0 mm 81 W/m2
16:14 28.6 °C 19.8 °C 1012.4 hPa WSW 0.6 km/h 14.5 km/h 59% 0 mm 77 W/m2
16:19 28.6 °C 19.7 °C 1012.4 hPa SW 0.6 km/h 14.5 km/h 58.6% 0 mm 76 W/m2
16:24 28.5 °C 19.5 °C 1012.4 hPa Calm   14.5 km/h 58.2% 0 mm 70 W/m2
16:29 28.5 °C 19.9 °C 1012.4 hPa Calm   14.5 km/h 59.7% 0 mm 70 W/m2
16:34 28.4 °C 19.8 °C 1012.4 hPa WSW 0.8 km/h 14.5 km/h 59.3% 0 mm 74 W/m2
16:39 28.4 °C 19.7 °C 1012.4 hPa WSW 1.3 km/h 14.5 km/h 59% 0 mm 77 W/m2
16:44 28.4 °C 19.6 °C 1012.4 hPa SW 1.3 km/h 17.7 km/h 59% 0 mm 76 W/m2
16:49 28.4 °C 19.6 °C 1012.4 hPa WSW 1.1 km/h 17.7 km/h 59% 0 mm 69 W/m2
16:54 28.3 °C 19.6 °C 1012.4 hPa West 0.2 km/h 17.7 km/h 59% 0 mm 62 W/m2
16:59 28.3 °C 19.7 °C 1012.4 hPa WSW 0.3 km/h 17.7 km/h 59.8% 0 mm 56 W/m2
17:04 28.2 °C 19.6 °C 1012.4 hPa WSW 0.8 km/h 17.7 km/h 59.6% 0 mm 54 W/m2
17:09 28.1 °C 19.5 °C 1012.4 hPa WSW 0.3 km/h 9.7 km/h 59.5% 0 mm 53 W/m2
17:14 28 °C 19.6 °C 1012.1 hPa West 0.2 km/h 9.7 km/h 60.1% 0 mm 53 W/m2
17:19 27.9 °C 19.4 °C 1012.1 hPa SW 0.2 km/h 9.7 km/h 60.1% 0 mm 49 W/m2
17:24 27.8 °C 19.6 °C 1012.1 hPa West 0.5 km/h 9.7 km/h 61% 0 mm 47 W/m2
17:29 27.8 °C 19.6 °C 1012.1 hPa WSW 1.1 km/h 14.5 km/h 61% 0 mm 44 W/m2
17:34 27.8 °C 19.6 °C 1012.1 hPa Calm   14.5 km/h 61% 0 mm 40 W/m2
17:39 27.7 °C 19.5 °C 1012.1 hPa WSW 0.2 km/h 1.6 km/h 61% 0 mm 37 W/m2
17:44 27.6 °C 19.5 °C 1012.1 hPa WSW 0.6 km/h 9.7 km/h 61.4% 0 mm 33 W/m2
17:49 27.5 °C 19.5 °C 1012.1 hPa West 0.2 km/h 9.7 km/h 61.6% 0 mm 32 W/m2
17:54 27.4 °C 19.5 °C 1012.1 hPa Calm   9.7 km/h 62% 0 mm 30 W/m2
17:59 27.3 °C 19.4 °C 1012.1 hPa Calm   9.7 km/h 62% 0 mm 30 W/m2
18:04 27.2 °C 19.3 °C 1012.1 hPa Calm   9.7 km/h 62% 0 mm 30 W/m2
18:09 27.1 °C 19.3 °C 1012.1 hPa Calm     62.7% 0 mm 28 W/m2
18:14 27 °C 19.3 °C 1012.1 hPa Calm   3.2 km/h 63% 0 mm 28 W/m2
18:19 26.9 °C 19.5 °C 1012.1 hPa Calm   3.2 km/h 64% 0 mm 26 W/m2
18:24 26.8 °C 19.4 °C 1012.4 hPa Calm   3.2 km/h 64% 0 mm 21 W/m2
18:29 26.6 °C 19.3 °C 1012.4 hPa Calm   3.2 km/h 64% 0 mm 16 W/m2
18:34 26.5 °C 19.2 °C 1012.4 hPa Calm   3.2 km/h 64% 0 mm 12 W/m2
18:39 26.4 °C 19.1 °C 1012.4 hPa Calm     64.2% 0 mm 9 W/m2
18:44 26.3 °C 19.2 °C 1012.4 hPa Calm     65% 0 mm 7 W/m2
18:49 26.2 °C 19.1 °C 1012.4 hPa Calm     65% 0 mm 0 W/m2
18:54 26.1 °C 19.2 °C 1012.4 hPa Calm     65.7% 0 mm 0 W/m2
18:59 25.9 °C 19.2 °C 1012.4 hPa Calm     66.5% 0 mm 0 W/m2
19:04 25.8 °C 19.3 °C 1012.4 hPa Calm     67.1% 0 mm 0 W/m2
19:09 25.7 °C 19.4 °C 1012.1 hPa Calm     68% 0 mm 0 W/m2
19:14 25.6 °C 19.2 °C 1012.1 hPa Calm     68% 0 mm 0 W/m2
19:19 25.5 °C 19.2 °C 1012.1 hPa Calm     68% 0 mm 0 W/m2
19:24 25.4 °C 19.3 °C 1012.1 hPa Calm     69% 0 mm 0 W/m2
19:29 25.3 °C 19.2 °C 1012.1 hPa Calm   1.6 km/h 69% 0 mm 0 W/m2
19:34 25.2 °C 19.3 °C 1012.4 hPa Calm   1.6 km/h 69.8% 0 mm 0 W/m2
19:39 25.1 °C 19.2 °C 1012.4 hPa Calm     69.8% 0 mm 0 W/m2
19:44 25 °C 19.2 °C 1012.4 hPa Calm     70% 0 mm 0 W/m2
19:49 25 °C 19.2 °C 1012.4 hPa Calm     70% 0 mm 0 W/m2
19:54 25 °C 19.2 °C 1012.8 hPa Calm     70% 0 mm 0 W/m2
19:58 24.9 °C 19.1 °C 1012.8 hPa Calm     70% 0 mm 0 W/m2
20:09 24.8 °C 19.2 °C 1012.8 hPa Calm     70.7% 0 mm 0 W/m2
20:14 24.8 °C 19.2 °C 1012.8 hPa Calm     71% 0 mm 0 W/m2
20:19 24.7 °C 19.2 °C 1012.8 hPa Calm     71.7% 0 mm 0 W/m2
20:24 24.6 °C 19.2 °C 1012.8 hPa Calm     72% 0 mm 0 W/m2
20:29 24.5 °C 19.3 °C 1012.8 hPa Calm     72.9% 0 mm 0 W/m2
20:34 24.4 °C 19.3 °C 1012.8 hPa Calm     73% 0 mm 0 W/m2
20:39 24.4 °C 19.2 °C 1012.8 hPa Calm     73% 0 mm 0 W/m2
20:44 24.3 °C 19.3 °C 1012.8 hPa Calm     73.8% 0 mm 0 W/m2
20:49 24.2 °C 19.3 °C 1012.8 hPa Calm     74.1% 0 mm 0 W/m2
20:54 24.1 °C 19.4 °C 1012.8 hPa Calm     75% 0 mm 0 W/m2
20:59 24.1 °C 19.4 °C 1012.8 hPa Calm     75.3% 0 mm 0 W/m2
21:04 23.9 °C 19.4 °C 1012.8 hPa Calm     76% 0 mm 0 W/m2
21:09 23.8 °C 19.3 °C 1012.8 hPa Calm     76% 0 mm 0 W/m2
21:14 23.8 °C 19.4 °C 1012.8 hPa Calm     76.8% 0 mm 0 W/m2
21:19 23.7 °C 19.4 °C 1012.8 hPa Calm     77% 0 mm 0 W/m2
21:24 23.6 °C 19.5 °C 1012.8 hPa Calm     77.6% 0 mm 0 W/m2
21:29 23.6 °C 19.5 °C 1012.8 hPa Calm     78% 0 mm 0 W/m2
21:34 23.5 °C 19.4 °C 1012.8 hPa Calm     78% 0 mm 0 W/m2
21:39 23.4 °C 19.4 °C 1012.8 hPa Calm     78% 0 mm 0 W/m2
21:44 23.3 °C 19.4 °C 1012.8 hPa Calm     78.4% 0 mm 0 W/m2
21:49 23.3 °C 19.4 °C 1012.8 hPa Calm     79% 0 mm 0 W/m2
21:54 23.2 °C 19.3 °C 1012.8 hPa Calm     79% 0 mm 0 W/m2
21:59 23.1 °C 19.4 °C 1012.8 hPa Calm     79.7% 0 mm 0 W/m2
22:04 23.1 °C 19.3 °C 1012.8 hPa Calm     79.4% 0 mm 0 W/m2
22:09 22.9 °C 19.2 °C 1012.8 hPa Calm     79.1% 0 mm 0 W/m2
22:14 22.9 °C 19.1 °C 1012.8 hPa Calm     79% 0 mm 0 W/m2
22:19 22.8 °C 19 °C 1012.8 hPa Calm     79% 0 mm 0 W/m2
22:24 22.7 °C 18.9 °C 1012.8 hPa Calm     79% 0 mm 0 W/m2
22:29 22.7 °C 19 °C 1012.8 hPa Calm     79.8% 0 mm 0 W/m2
22:34 22.6 °C 18.9 °C 1012.4 hPa Calm     79.5% 0 mm 0 W/m2
22:39 22.6 °C 18.9 °C 1012.8 hPa Calm     80% 0 mm 0 W/m2
22:44 22.5 °C 18.9 °C 1012.8 hPa Calm     80% 0 mm 0 W/m2
22:49 22.4 °C 18.8 °C 1012.8 hPa Calm     80% 0 mm 0 W/m2
22:54 22.4 °C 18.8 °C 1012.4 hPa Calm     80% 0 mm 0 W/m2
22:59 22.4 °C 18.8 °C 1012.8 hPa Calm     80% 0 mm 0 W/m2
23:04 22.3 °C 18.8 °C 1012.8 hPa Calm     80.6% 0 mm 0 W/m2
23:09 22.3 °C 18.9 °C 1012.8 hPa Calm     81% 0 mm 0 W/m2
23:14 22.3 °C 18.9 °C 1012.8 hPa Calm     81% 0 mm 0 W/m2
23:19 22.3 °C 18.8 °C 1012.8 hPa Calm     81% 0 mm 0 W/m2
23:24 22.2 °C 18.8 °C 1012.8 hPa Calm     81% 0 mm 0 W/m2
23:29 22.2 °C 18.8 °C 1012.4 hPa Calm   1.6 km/h 81% 0 mm 0 W/m2
23:34 22.1 °C 18.7 °C 1012.4 hPa Calm   1.6 km/h 81% 0 mm 0 W/m2
23:39 22.1 °C 18.8 °C 1012.4 hPa Calm     81.5% 0 mm 0 W/m2
23:44 22 °C 18.8 °C 1012.4 hPa Calm   1.6 km/h 82% 0 mm 0 W/m2
23:49 21.9 °C 18.7 °C 1012.4 hPa Calm   1.6 km/h 82% 0 mm 0 W/m2
23:54 21.9 °C 18.7 °C 1012.1 hPa Calm   1.6 km/h 82% 0 mm 0 W/m2
23:59 21.8 °C 18.6 °C 1012.1 hPa Calm   1.6 km/h 82.2% 0 mm 0 W/m2
Hartford County Weather
Compliments of Weather Underground - 4 mb